Terminal Aerodrome Forecast
Issued by NWS

Home | Current Version | Previous Version | Text Only | Print | Product List | Glossary On
Versions: 1 2 3 4 5 6 7 8 9 10 11 12 13 14 15 16 17 18 19 20 21 22 23 24 25 26 27 28 29 30
000
FTUS43 KICT 250522
TAFRSL
TAF
KRSL 250522Z 2506/2606 VRB04KT P6SM SKC
     FM251100 33012KT P6SM SCT070
     FM251500 35024G35KT P6SM SCT040
      TEMPO 2515/2519 BKN040
     FM260100 32009KT P6SM SKC=

USA.gov is the U.S. government's official web portal to all federal, state and local government web resources and services.